createdAt,value
2019-05-06T00:00:59.542Z,98133.37
2019-05-06T00:03:30.760Z,98127.78
2019-05-06T00:06:03.914Z,98127.39
2019-05-06T00:08:34.744Z,98126.15
2019-05-06T00:11:06.003Z,98124.88
2019-05-06T00:13:37.055Z,98125.77
2019-05-06T00:16:08.314Z,98121.98
2019-05-06T00:18:39.439Z,98123.28
2019-05-06T00:21:10.821Z,98130.12
2019-05-06T00:23:46.225Z,98129.27
2019-05-06T00:26:24.235Z,98127.56
2019-05-06T00:28:56.299Z,98130.18
2019-05-06T00:31:27.456Z,98131.91
2019-05-06T00:33:58.710Z,98135.36
2019-05-06T00:36:28.887Z,98128.52
2019-05-06T00:39:01.749Z,98129.81
2019-05-06T00:41:36.708Z,98127.26
2019-05-06T00:44:07.823Z,98132.81
2019-05-06T00:46:38.800Z,98129.83
2019-05-06T00:49:10.017Z,98138.38
2019-05-06T00:51:41.017Z,98134.95
2019-05-06T00:54:28.949Z,98135.39
2019-05-06T00:56:59.935Z,98134.53
2019-05-06T00:59:30.976Z,98136.66
2019-05-06T01:02:04.467Z,98136.23
2019-05-06T01:04:35.117Z,98135.39
2019-05-06T01:07:06.150Z,98143.51
2019-05-06T01:09:37.582Z,98144.37
2019-05-06T01:12:10.290Z,98140.92
2019-05-06T01:14:45.031Z,98141.37
2019-05-06T01:17:16.257Z,98148.20
2019-05-06T01:19:47.230Z,98149.03
2019-05-06T01:22:18.312Z,98150.73
2019-05-06T01:24:49.183Z,98150.73
2019-05-06T01:27:20.337Z,98147.31
2019-05-06T01:29:51.461Z,98148.15
2019-05-06T01:32:23.646Z,98145.61
2019-05-06T01:34:54.697Z,98144.75
2019-05-06T01:37:27.624Z,98142.65
2019-05-06T01:40:00.269Z,98148.61
2019-05-06T01:42:47.864Z,98144.78
2019-05-06T01:45:18.786Z,98147.75
2019-05-06T01:47:49.799Z,98152.43
2019-05-06T01:50:20.850Z,98148.16
2019-05-06T01:52:50.884Z,98150.71
2019-05-06T01:55:23.751Z,98158.37
2019-05-06T01:57:54.695Z,98160.05
2019-05-06T02:00:25.874Z,98157.47
2019-05-06T02:02:56.824Z,98164.71
2019-05-06T02:05:27.980Z,98171.96
2019-05-06T02:07:58.871Z,98173.73
2019-05-06T02:10:29.952Z,98171.22
2019-05-06T02:13:00.838Z,98175.91
2019-05-06T02:15:31.980Z,98172.05
2019-05-06T02:18:04.071Z,98183.59
2019-05-06T02:20:37.197Z,98185.27
2019-05-06T02:23:09.816Z,98179.74
2019-05-06T02:25:44.698Z,98182.30
2019-05-06T02:28:15.698Z,98174.66
2019-05-06T02:30:50.203Z,98177.20
2019-05-06T02:33:37.964Z,98180.19
2019-05-06T02:36:16.176Z,98175.50
2019-05-06T02:38:51.430Z,98178.91
2019-05-06T02:41:23.072Z,98180.14
2019-05-06T02:43:54.235Z,98182.69
2019-05-06T02:46:25.405Z,98182.20
2019-05-06T02:48:58.180Z,98189.44
2019-05-06T02:51:29.090Z,98192.78
2019-05-06T02:54:03.042Z,98192.74
2019-05-06T02:56:33.440Z,98196.11
2019-05-06T02:59:04.838Z,98199.55
2019-05-06T03:01:35.813Z,98206.38
2019-05-06T03:04:07.061Z,98208.50
2019-05-06T03:06:38.037Z,98207.63
2019-05-06T03:09:08.113Z,98209.73
2019-05-06T03:11:39.203Z,98208.41
2019-05-06T03:14:10.116Z,98215.70
2019-05-06T03:16:43.904Z,98220.50
2019-05-06T03:19:13.877Z,98215.83
2019-05-06T03:21:46.754Z,98208.17
2019-05-06T03:24:19.241Z,98215.86
2019-05-06T03:26:56.142Z,98217.55
2019-05-06T03:29:25.425Z,98220.13
2019-05-06T03:31:57.566Z,98209.49
2019-05-06T03:34:52.933Z,98216.73
2019-05-06T03:37:06.504Z,98209.06
2019-05-06T03:39:34.493Z,98209.51
2019-05-06T03:42:05.804Z,98209.52
2019-05-06T03:44:38.359Z,98215.92
2019-05-06T03:47:16.128Z,98216.31
2019-05-06T03:49:50.072Z,98211.63
2019-05-06T03:52:23.200Z,98213.75
2019-05-06T03:54:55.922Z,98219.72
2019-05-06T03:57:28.812Z,98221.86
2019-05-06T04:00:04.277Z,98216.73
2019-05-06T04:02:33.804Z,98220.16
2019-05-06T04:05:06.245Z,98224.84
2019-05-06T04:07:37.628Z,98225.30
2019-05-06T04:10:09.207Z,98226.61
2019-05-06T04:12:43.324Z,98224.48
2019-05-06T04:15:14.533Z,98224.52
2019-05-06T04:17:47.244Z,98224.50
2019-05-06T04:20:23.628Z,98225.80
2019-05-06T04:23:14.549Z,98233.09
2019-05-06T04:26:03.826Z,98232.22
2019-05-06T04:28:36.853Z,98237.38
2019-05-06T04:31:07.961Z,98236.53
2019-05-06T04:33:39.011Z,98248.03
2019-05-06T04:36:09.246Z,98249.77
2019-05-06T04:38:43.343Z,98241.66
2019-05-06T04:41:13.795Z,98248.52
2019-05-06T04:43:45.338Z,98245.52
2019-05-06T04:46:16.875Z,98254.51
2019-05-06T04:48:48.420Z,98253.23
2019-05-06T04:51:20.606Z,98260.50
2019-05-06T04:53:53.740Z,98262.22
2019-05-06T04:56:24.575Z,98257.52
2019-05-06T04:58:55.925Z,98262.64
2019-05-06T05:01:26.917Z,98260.51
2019-05-06T05:03:58.165Z,98261.81
2019-05-06T05:06:29.113Z,98256.25
2019-05-06T05:09:02.581Z,98257.53
2019-05-06T05:11:34.994Z,98259.20
2019-05-06T05:14:09.209Z,98254.06
2019-05-06T05:16:45.021Z,98254.88
2019-05-06T05:19:17.235Z,98259.59
2019-05-06T05:21:48.421Z,98259.59
2019-05-06T05:24:19.799Z,98267.28
2019-05-06T05:26:52.277Z,98271.59
2019-05-06T05:29:23.350Z,98274.16
2019-05-06T05:31:54.985Z,98276.27
2019-05-06T05:34:37.230Z,98285.23
2019-05-06T05:36:58.949Z,98280.50
2019-05-06T05:39:29.883Z,98280.08
2019-05-06T05:42:03.014Z,98286.49
2019-05-06T05:44:43.118Z,98286.06
2019-05-06T05:47:14.382Z,98287.36
2019-05-06T05:50:03.010Z,98291.61
2019-05-06T05:52:34.532Z,98290.33
2019-05-06T05:55:05.856Z,98294.09
2019-05-06T05:57:36.046Z,98300.33
2019-05-06T06:00:07.502Z,98292.23
2019-05-06T06:02:38.452Z,98297.92
2019-05-06T06:05:09.993Z,98297.70
2019-05-06T06:07:42.241Z,98299.81
2019-05-06T06:10:24.199Z,98290.41
2019-05-06T06:12:55.538Z,98294.49
2019-05-06T06:15:28.378Z,98290.91
2019-05-06T06:18:17.442Z,98291.80
2019-05-06T06:20:56.361Z,98287.84
2019-05-06T06:23:32.445Z,98283.50
2019-05-06T06:26:04.171Z,98290.19
2019-05-06T06:28:35.955Z,98288.47
2019-05-06T06:31:08.910Z,98284.29
2019-05-06T06:33:42.569Z,98287.90
2019-05-06T06:36:17.554Z,98284.99
2019-05-06T06:38:53.404Z,98282.28
2019-05-06T06:41:23.731Z,98276.59
2019-05-06T06:43:56.414Z,98283.59
2019-05-06T06:46:27.574Z,98278.84
2019-05-06T06:48:58.998Z,98276.05
2019-05-06T06:51:32.907Z,98280.95
2019-05-06T06:54:03.171Z,98271.37
2019-05-06T06:56:38.518Z,98270.44
2019-05-06T06:59:27.842Z,98268.08
2019-05-06T07:02:12.049Z,98270.86
2019-05-06T07:04:47.362Z,98271.25
2019-05-06T07:07:20.090Z,98272.25
2019-05-06T07:09:52.623Z,98268.34
2019-05-06T07:12:23.701Z,98270.92
2019-05-06T07:15:02.302Z,98271.37
2019-05-06T07:17:33.618Z,98274.23
2019-05-06T07:20:07.964Z,98273.41
2019-05-06T07:22:39.007Z,98269.66
2019-05-06T07:25:12.676Z,98273.33
2019-05-06T07:27:43.352Z,98270.66
2019-05-06T07:30:13.828Z,98270.81
2019-05-06T07:32:45.030Z,98271.41
2019-05-06T07:35:16.039Z,98281.88
2019-05-06T07:37:47.197Z,98273.08
2019-05-06T07:40:18.438Z,98271.25
2019-05-06T07:42:52.707Z,98272.14
2019-05-06T07:45:25.510Z,98279.80
2019-05-06T07:50:49.308Z,98279.89
2019-05-06T07:53:22.370Z,98277.30
2019-05-06T07:55:53.073Z,98281.11
2019-05-06T07:58:24.370Z,98278.25
2019-05-06T08:00:55.238Z,98274.78
2019-05-06T08:03:29.516Z,98280.95
2019-05-06T08:06:02.528Z,98283.55
2019-05-06T08:08:33.454Z,98284.36
2019-05-06T08:11:05.114Z,98278.40
2019-05-06T08:13:36.094Z,98286.78
2019-05-06T08:16:07.903Z,98284.80
2019-05-06T08:18:38.899Z,98288.72
2019-05-06T08:21:15.148Z,98290.94
2019-05-06T08:23:47.831Z,98289.34
2019-05-06T08:26:18.967Z,98292.54
2019-05-06T08:28:52.385Z,98292.05
2019-05-06T08:31:23.250Z,98289.94
2019-05-06T08:33:54.424Z,98292.56
2019-05-06T08:36:27.241Z,98292.81
2019-05-06T08:39:02.916Z,98296.86
2019-05-06T08:41:34.169Z,98287.33
2019-05-06T08:44:05.399Z,98291.82
2019-05-06T08:46:35.553Z,98295.15
2019-05-06T08:49:06.947Z,98288.29
2019-05-06T08:51:42.410Z,98298.77
2019-05-06T08:54:32.462Z,98297.67
2019-05-06T08:57:03.533Z,98291.27
2019-05-06T08:59:34.964Z,98296.31
2019-05-06T09:02:07.415Z,98296.37
2019-05-06T09:04:38.575Z,98295.78
2019-05-06T09:07:09.557Z,98300.94
2019-05-06T09:09:42.137Z,98297.91
2019-05-06T09:12:13.485Z,98297.55
2019-05-06T09:14:44.685Z,98302.43
2019-05-06T09:17:15.900Z,98307.88
2019-05-06T09:19:47.042Z,98297.66
2019-05-06T09:22:18.270Z,98301.34
2019-05-06T09:24:48.421Z,98297.31
2019-05-06T09:27:22.609Z,98296.56
2019-05-06T09:29:54.393Z,98296.50
2019-05-06T09:32:27.162Z,98296.81
2019-05-06T09:34:59.158Z,98300.62
2019-05-06T09:37:32.504Z,98291.94
2019-05-06T09:40:03.188Z,98295.25
2019-05-06T09:42:34.356Z,98291.63
2019-05-06T09:45:09.395Z,98283.08
2019-05-06T09:47:42.596Z,98294.63
2019-05-06T09:50:17.119Z,98290.09
2019-05-06T09:52:48.419Z,98290.12
2019-05-06T09:55:27.204Z,98281.41
2019-05-06T09:57:59.924Z,98288.63
2019-05-06T10:00:33.151Z,98280.95
2019-05-06T10:03:03.836Z,98284.24
2019-05-06T10:05:35.202Z,98284.53
2019-05-06T10:08:06.281Z,98280.00
2019-05-06T10:10:37.597Z,98274.91
2019-05-06T10:13:08.781Z,98276.92
2019-05-06T10:15:42.625Z,98275.00
2019-05-06T10:18:13.584Z,98271.65
2019-05-06T10:20:46.811Z,98271.67
2019-05-06T10:23:17.981Z,98267.52
2019-05-06T10:25:49.231Z,98265.01
2019-05-06T10:28:23.271Z,98281.55
2019-05-06T10:30:54.939Z,98272.56
2019-05-06T10:33:27.620Z,98262.78
2019-05-06T10:36:05.275Z,98268.67
2019-05-06T10:38:45.312Z,98262.95
2019-05-06T10:41:19.588Z,98253.38
2019-05-06T10:44:22.817Z,98251.20
2019-05-06T10:46:54.440Z,98243.78
2019-05-06T10:49:25.811Z,98248.74
2019-05-06T10:52:02.213Z,98242.08
2019-05-06T10:54:33.284Z,98238.46
2019-05-06T10:57:05.895Z,98237.40
2019-05-06T10:59:37.162Z,98236.33
2019-05-06T11:02:10.077Z,98239.41
2019-05-06T11:04:42.632Z,98238.72
2019-05-06T11:07:28.177Z,98233.02
2019-05-06T11:09:46.506Z,98232.47
2019-05-06T11:12:17.851Z,98224.48
2019-05-06T11:14:48.998Z,98226.44
2019-05-06T11:17:20.050Z,98223.31
2019-05-06T11:19:53.140Z,98223.64
2019-05-06T11:22:24.790Z,98225.01
2019-05-06T11:24:55.967Z,98215.38
2019-05-06T11:27:32.037Z,98202.66
2019-05-06T11:30:02.298Z,98200.31
2019-05-06T11:32:44.568Z,98207.61
2019-05-06T11:35:33.831Z,98205.81
2019-05-06T11:38:12.578Z,98200.88
2019-05-06T11:40:42.691Z,98196.55
2019-05-06T11:43:13.769Z,98194.73
2019-05-06T11:45:44.702Z,98198.81
2019-05-06T11:48:15.949Z,98193.09
2019-05-06T11:50:48.749Z,98205.27
2019-05-06T11:53:19.916Z,98207.45
2019-05-06T11:55:54.410Z,98221.57
2019-05-06T11:58:43.099Z,98216.75
2019-05-06T12:01:18.490Z,98213.81
2019-05-06T12:03:52.951Z,98216.61
2019-05-06T12:06:24.044Z,98216.58
2019-05-06T12:08:55.576Z,98212.33
2019-05-06T12:11:26.759Z,98221.77
2019-05-06T12:13:57.984Z,98224.94
2019-05-06T12:16:29.017Z,98228.55
2019-05-06T12:19:02.860Z,98226.73
2019-05-06T12:21:34.259Z,98218.77
2019-05-06T12:24:05.400Z,98235.78
2019-05-06T12:26:38.465Z,98227.17
2019-05-06T12:29:12.821Z,98236.64
2019-05-06T12:31:44.969Z,98228.95
2019-05-06T12:34:15.974Z,98229.74
2019-05-06T12:36:48.791Z,98225.32
2019-05-06T12:39:23.070Z,98229.69
2019-05-06T12:41:55.688Z,98217.39
2019-05-06T12:44:26.783Z,98226.92
2019-05-06T12:47:05.301Z,98226.00
2019-05-06T12:49:48.902Z,98221.44
2019-05-06T12:52:20.136Z,98223.13
2019-05-06T12:54:54.183Z,98228.59
2019-05-06T12:57:24.087Z,98220.57
2019-05-06T12:59:55.195Z,98220.36
2019-05-06T13:02:25.414Z,98229.52
2019-05-06T13:05:00.667Z,98232.80
2019-05-06T13:07:32.449Z,98228.76
2019-05-06T13:10:06.101Z,98236.42
2019-05-06T13:12:38.879Z,98232.24
2019-05-06T13:15:12.865Z,98227.38
2019-05-06T13:17:43.277Z,98229.23
2019-05-06T13:20:14.993Z,98230.80
2019-05-06T13:22:53.496Z,98235.52
2019-05-06T13:25:23.610Z,98237.48
2019-05-06T13:27:54.555Z,98229.80
2019-05-06T13:30:26.361Z,98226.39
2019-05-06T13:33:15.353Z,98230.43
2019-05-06T13:35:46.613Z,98234.91
2019-05-06T13:38:17.460Z,98223.56
2019-05-06T13:40:54.948Z,98235.67
2019-05-06T13:43:23.494Z,98230.84
2019-05-06T13:46:03.528Z,98230.68
2019-05-06T13:48:37.365Z,98224.72
2019-05-06T13:51:25.229Z,98223.31
2019-05-06T13:53:56.861Z,98218.73
2019-05-06T13:56:28.062Z,98219.28
2019-05-06T13:58:59.306Z,98211.23
2019-05-06T14:01:32.174Z,98221.78
2019-05-06T14:04:03.808Z,98214.81
2019-05-06T14:06:35.002Z,98215.31
2019-05-06T14:09:07.849Z,98211.91
2019-05-06T14:11:38.913Z,98219.83
2019-05-06T14:14:12.486Z,98211.27
2019-05-06T14:16:42.931Z,98211.41
2019-05-06T14:19:14.134Z,98212.08
2019-05-06T14:21:45.071Z,98210.34
2019-05-06T14:24:17.373Z,98202.27
2019-05-06T14:26:57.587Z,98206.56
2019-05-06T14:29:27.431Z,98205.55
2019-05-06T14:31:59.567Z,98203.03
2019-05-06T14:34:32.449Z,98192.77
2019-05-06T14:37:03.371Z,98199.82
2019-05-06T14:39:53.391Z,98208.18
2019-05-06T14:42:14.932Z,98205.10
2019-05-06T14:44:45.952Z,98201.91
2019-05-06T14:47:18.887Z,98205.37
2019-05-06T14:49:49.768Z,98208.20
2019-05-06T14:52:22.621Z,98204.40
2019-05-06T14:54:55.682Z,98210.30
2019-05-06T14:57:26.851Z,98212.41
2019-05-06T14:59:57.865Z,98208.38
2019-05-06T15:02:28.479Z,98205.75
2019-05-06T15:04:59.676Z,98209.34
2019-05-06T15:07:32.759Z,98207.92
2019-05-06T15:10:19.081Z,98204.27
2019-05-06T15:12:36.452Z,98190.52
2019-05-06T15:15:07.957Z,98191.28
2019-05-06T15:17:39.034Z,98191.41
2019-05-06T15:20:12.126Z,98193.85
2019-05-06T15:22:43.379Z,98192.56
2019-05-06T15:25:14.669Z,98209.08
2019-05-06T15:27:45.656Z,98207.79
2019-05-06T15:30:33.487Z,98209.29
2019-05-06T15:33:05.200Z,98200.83
2019-05-06T15:35:56.516Z,98214.83
2019-05-06T15:38:29.144Z,98212.68
2019-05-06T15:41:00.442Z,98217.20
2019-05-06T15:43:33.364Z,98212.77
2019-05-06T15:46:04.945Z,98217.23
2019-05-06T15:48:35.924Z,98215.48
2019-05-06T15:51:06.085Z,98221.09
2019-05-06T15:53:37.230Z,98222.78
2019-05-06T15:56:08.242Z,98227.73
2019-05-06T15:58:39.408Z,98220.59
2019-05-06T16:01:10.456Z,98226.89
2019-05-06T16:03:43.111Z,98218.33
2019-05-06T16:06:14.354Z,98224.53
2019-05-06T16:08:46.031Z,98222.52
2019-05-06T16:11:17.194Z,98221.12
2019-05-06T16:13:48.330Z,98225.23
2019-05-06T16:16:19.383Z,98225.99
2019-05-06T16:18:50.623Z,98219.88
2019-05-06T16:21:23.026Z,98227.24
2019-05-06T16:23:55.090Z,98223.08
2019-05-06T16:26:26.260Z,98223.83
2019-05-06T16:28:57.159Z,98220.13
2019-05-06T16:31:28.423Z,98225.44
2019-05-06T16:33:59.378Z,98229.58
2019-05-06T16:36:32.407Z,98218.05
2019-05-06T16:39:07.205Z,98220.80
2019-05-06T16:41:38.511Z,98227.06
2019-05-06T16:44:09.584Z,98219.70
2019-05-06T16:46:42.678Z,98221.13
2019-05-06T16:49:14.285Z,98212.95
2019-05-06T16:51:45.617Z,98221.88
2019-05-06T16:54:16.627Z,98223.81
2019-05-06T16:57:02.309Z,98222.89
2019-05-06T16:59:33.593Z,98228.02
2019-05-06T17:02:05.568Z,98227.41
2019-05-06T17:04:52.533Z,98230.91
2019-05-06T17:07:22.397Z,98227.81
2019-05-06T17:09:53.807Z,98233.76
2019-05-06T17:12:24.742Z,98230.25
2019-05-06T17:14:55.855Z,98234.53
2019-05-06T17:17:39.641Z,98230.02
2019-05-06T17:19:59.815Z,98232.22
2019-05-06T17:22:32.595Z,98229.61
2019-05-06T17:25:03.914Z,98232.56
2019-05-06T17:27:36.245Z,98229.88
2019-05-06T17:30:13.591Z,98230.02
2019-05-06T17:32:46.212Z,98229.86
2019-05-06T17:35:17.554Z,98232.96
2019-05-06T17:37:50.072Z,98225.45
2019-05-06T17:40:23.009Z,98227.75
2019-05-06T17:42:54.323Z,98227.30
2019-05-06T17:45:43.039Z,98237.72
2019-05-06T17:48:16.349Z,98235.80
2019-05-06T17:51:13.738Z,98237.84
2019-05-06T17:53:48.879Z,98237.03
2019-05-06T17:56:19.044Z,98238.78
2019-05-06T17:58:50.374Z,98241.52
2019-05-06T18:01:23.360Z,98236.47
2019-05-06T18:03:54.765Z,98243.95
2019-05-06T18:06:25.861Z,98242.80
2019-05-06T18:08:57.016Z,98247.20
2019-05-06T18:11:28.241Z,98249.94
2019-05-06T18:13:59.598Z,98250.79
2019-05-06T18:16:32.994Z,98246.98
2019-05-06T18:19:04.000Z,98257.89
2019-05-06T18:21:35.179Z,98256.27
2019-05-06T18:24:09.696Z,98256.54
2019-05-06T18:26:39.541Z,98257.98
2019-05-06T18:29:09.971Z,98257.70
2019-05-06T18:31:42.773Z,98260.45
2019-05-06T18:34:13.908Z,98273.22
2019-05-06T18:36:45.032Z,98273.03
2019-05-06T18:39:16.031Z,98271.55
2019-05-06T18:41:47.211Z,98275.58
2019-05-06T18:44:18.234Z,98277.94
2019-05-06T18:46:49.421Z,98278.11
2019-05-06T18:49:22.356Z,98289.53
2019-05-06T18:51:54.278Z,98292.78
2019-05-06T18:54:25.909Z,98294.73
2019-05-06T18:56:57.562Z,98290.48
2019-05-06T18:59:28.779Z,98298.02
2019-05-06T19:01:59.103Z,98296.00
2019-05-06T19:04:34.857Z,98302.66
2019-05-06T19:07:12.689Z,98299.44
2019-05-06T19:09:42.589Z,98303.05
2019-05-06T19:12:28.391Z,98310.55
2019-05-06T19:14:47.100Z,98313.70
2019-05-06T19:17:22.494Z,98318.09
2019-05-06T19:19:54.150Z,98315.86
2019-05-06T19:22:25.242Z,98314.64
2019-05-06T19:24:56.796Z,98324.22
2019-05-06T19:27:28.019Z,98325.22
2019-05-06T19:29:59.370Z,98330.53
2019-05-06T19:32:34.286Z,98333.94
2019-05-06T19:35:04.642Z,98334.83
2019-05-06T19:37:35.609Z,98336.27
2019-05-06T19:40:06.716Z,98334.20
2019-05-06T19:42:47.196Z,98337.38
2019-05-06T19:45:09.873Z,98339.23
2019-05-06T19:47:42.495Z,98336.34
2019-05-06T19:50:13.894Z,98337.67
2019-05-06T19:52:45.214Z,98342.78
2019-05-06T19:55:16.539Z,98340.45
2019-05-06T19:57:47.811Z,98341.38
2019-05-06T20:00:20.060Z,98337.94
2019-05-06T20:02:52.166Z,98336.30
2019-05-06T20:05:25.186Z,98339.61
2019-05-06T20:08:16.334Z,98336.53
2019-05-06T20:10:56.192Z,98336.53
2019-05-06T20:13:27.753Z,98336.20
2019-05-06T20:16:02.827Z,98336.92
2019-05-06T20:18:34.418Z,98342.16
2019-05-06T20:21:05.698Z,98332.30
2019-05-06T20:23:35.827Z,98332.69
2019-05-06T20:26:06.930Z,98338.26
2019-05-06T20:28:37.824Z,98342.43
2019-05-06T20:31:09.059Z,98336.67
2019-05-06T20:33:42.055Z,98337.71
2019-05-06T20:36:12.844Z,98336.19
2019-05-06T20:38:43.805Z,98335.95
2019-05-06T20:41:14.945Z,98335.55
2019-05-06T20:43:45.917Z,98337.30
2019-05-06T20:46:17.070Z,98335.89
2019-05-06T20:48:48.048Z,98340.63
2019-05-06T20:51:19.108Z,98339.06
2019-05-06T20:53:50.128Z,98342.26
2019-05-06T20:56:22.372Z,98335.59
2019-05-06T20:58:53.413Z,98340.13
2019-05-06T21:01:23.708Z,98340.68
2019-05-06T21:03:54.931Z,98341.17
2019-05-06T21:06:25.872Z,98337.84
2019-05-06T21:08:57.067Z,98333.55
2019-05-06T21:11:29.296Z,98336.95
2019-05-06T21:14:02.273Z,98335.66
2019-05-06T21:16:33.330Z,98341.72
2019-05-06T21:19:04.524Z,98339.59
2019-05-06T21:21:35.439Z,98346.12
2019-05-06T21:24:06.562Z,98341.30
2019-05-06T21:26:37.524Z,98345.88
2019-05-06T21:29:08.701Z,98347.15
2019-05-06T21:31:39.671Z,98344.40
2019-05-06T21:34:09.970Z,98345.64
2019-05-06T21:36:42.199Z,98344.66
2019-05-06T21:39:13.499Z,98341.21
2019-05-06T21:41:45.062Z,98331.72
2019-05-06T21:44:16.028Z,98328.69
2019-05-06T21:46:47.251Z,98334.30
2019-05-06T21:49:18.400Z,98331.25
2019-05-06T21:51:49.556Z,98334.97
2019-05-06T21:54:20.522Z,98339.26
2019-05-06T21:56:53.211Z,98331.52
2019-05-06T21:59:26.316Z,98329.87
2019-05-06T22:01:59.489Z,98322.66
2019-05-06T22:04:32.562Z,98322.00
2019-05-06T22:07:03.027Z,98324.36
2019-05-06T22:09:34.305Z,98319.78
2019-05-06T22:12:05.321Z,98319.88
2019-05-06T22:14:36.444Z,98313.57
2019-05-06T22:17:08.781Z,98316.63
2019-05-06T22:19:39.962Z,98315.04
2019-05-06T22:22:15.497Z,98311.75
2019-05-06T22:24:47.441Z,98317.80
2019-05-06T22:27:18.969Z,98315.73
2019-05-06T22:29:52.272Z,98312.83
2019-05-06T22:32:23.298Z,98315.09
2019-05-06T22:34:54.516Z,98313.05
2019-05-06T22:37:25.488Z,98311.34
2019-05-06T22:39:56.826Z,98307.26
2019-05-06T22:42:27.721Z,98307.06
2019-05-06T22:44:57.947Z,98309.34
2019-05-06T22:47:28.981Z,98306.16
2019-05-06T22:50:02.054Z,98305.44
2019-05-06T22:52:32.817Z,98300.47
2019-05-06T22:55:04.721Z,98300.56
2019-05-06T22:57:35.967Z,98298.52
2019-05-06T23:00:15.033Z,98300.34
2019-05-06T23:02:56.887Z,98301.73
2019-05-06T23:05:27.954Z,98296.91
2019-05-06T23:07:59.119Z,98300.00
2019-05-06T23:10:30.182Z,98298.86
2019-05-06T23:13:03.108Z,98305.03
2019-05-06T23:15:34.294Z,98302.94
2019-05-06T23:18:05.533Z,98309.70
2019-05-06T23:20:36.495Z,98310.51
2019-05-06T23:23:06.622Z,98313.16
2019-05-06T23:25:37.701Z,98307.05
2019-05-06T23:28:08.653Z,98310.16
2019-05-06T23:30:39.816Z,98311.56
2019-05-06T23:33:11.784Z,98313.05
2019-05-06T23:35:43.979Z,98313.25
2019-05-06T23:38:52.416Z,98312.50
2019-05-06T23:42:00.152Z,98315.62
2019-05-06T23:45:07.421Z,98311.92
2019-05-06T23:48:15.341Z,98317.63
2019-05-06T23:51:22.843Z,98315.99
2019-05-06T23:54:32.760Z,98311.84
2019-05-06T23:57:02.842Z,98313.70
2019-05-06T23:59:34.143Z,98316.37
